sensor_id;sensor_type;location;lat;lon;timestamp;pressure;altitude;pressure_sealevel;temperature;humidity
10606;BME280;5350;42.698;23.148;2024-02-21T00:02:24;94277.41;;;5.99;100.00
10606;BME280;5350;42.698;23.148;2024-02-21T00:04:50;94282.44;;;6.06;100.00
10606;BME280;5350;42.698;23.148;2024-02-21T00:07:18;94281.44;;;6.07;100.00
10606;BME280;5350;42.698;23.148;2024-02-21T00:09:45;94283.00;;;6.08;100.00
10606;BME280;5350;42.698;23.148;2024-02-21T00:12:12;94283.50;;;6.05;100.00
10606;BME280;5350;42.698;23.148;2024-02-21T00:14:39;94281.44;;;6.07;100.00
10606;BME280;5350;42.698;23.148;2024-02-21T00:17:07;94283.28;;;6.11;100.00
10606;BME280;5350;42.698;23.148;2024-02-21T00:19:34;94281.44;;;6.07;100.00
10606;BME280;5350;42.698;23.148;2024-02-21T00:22:00;94285.59;;;6.08;100.00
10606;BME280;5350;42.698;23.148;2024-02-21T00:24:28;94281.44;;;6.07;100.00
10606;BME280;5350;42.698;23.148;2024-02-21T00:26:55;94276.78;;;6.14;100.00
10606;BME280;5350;42.698;23.148;2024-02-21T00:29:22;94283.59;;;6.15;100.00
10606;BME280;5350;42.698;23.148;2024-02-21T00:31:49;94275.22;;;6.13;100.00
10606;BME280;5350;42.698;23.148;2024-02-21T00:34:15;94275.41;;;5.85;100.00
10606;BME280;5350;42.698;23.148;2024-02-21T00:36:42;94270.19;;;5.63;100.00
10606;BME280;5350;42.698;23.148;2024-02-21T00:39:09;94264.28;;;5.73;100.00
10606;BME280;5350;42.698;23.148;2024-02-21T00:41:37;94258.88;;;5.79;100.00
10606;BME280;5350;42.698;23.148;2024-02-21T00:44:04;94268.81;;;5.82;100.00
10606;BME280;5350;42.698;23.148;2024-02-21T00:46:31;94263.31;;;5.79;100.00
10606;BME280;5350;42.698;23.148;2024-02-21T00:48:58;94268.53;;;5.79;100.00
10606;BME280;5350;42.698;23.148;2024-02-21T00:51:25;94263.41;;;5.84;100.00
10606;BME280;5350;42.698;23.148;2024-02-21T00:53:51;94259.97;;;5.83;100.00
10606;BME280;5350;42.698;23.148;2024-02-21T00:56:18;94257.53;;;5.77;100.00
10606;BME280;5350;42.698;23.148;2024-02-21T00:58:46;94258.72;;;5.86;100.00
10606;BME280;5350;42.698;23.148;2024-02-21T01:01:13;94264.00;;;5.91;100.00
10606;BME280;5350;42.698;23.148;2024-02-21T01:03:39;94259.91;;;5.78;100.00
10606;BME280;5350;42.698;23.148;2024-02-21T01:06:06;94249.25;;;5.80;100.00
10606;BME280;5350;42.698;23.148;2024-02-21T01:08:33;94251.78;;;5.75;100.00
10606;BME280;5350;42.698;23.148;2024-02-21T01:10:59;94255.91;;;5.71;100.00
10606;BME280;5350;42.698;23.148;2024-02-21T01:13:26;94246.75;;;5.68;100.00
10606;BME280;5350;42.698;23.148;2024-02-21T01:15:54;94235.88;;;5.54;100.00
10606;BME280;5350;42.698;23.148;2024-02-21T01:18:21;94241.56;;;5.51;100.00
10606;BME280;5350;42.698;23.148;2024-02-21T01:20:48;94241.94;;;5.38;100.00
10606;BME280;5350;42.698;23.148;2024-02-21T01:23:14;94237.75;;;5.37;100.00
10606;BME280;5350;42.698;23.148;2024-02-21T01:25:41;94235.75;;;5.44;100.00
10606;BME280;5350;42.698;23.148;2024-02-21T01:28:08;94231.69;;;5.53;100.00
10606;BME280;5350;42.698;23.148;2024-02-21T01:30:34;94244.81;;;5.58;100.00
10606;BME280;5350;42.698;23.148;2024-02-21T01:33:03;94236.00;;;5.64;100.00
10606;BME280;5350;42.698;23.148;2024-02-21T01:35:30;94228.00;;;5.71;100.00
10606;BME280;5350;42.698;23.148;2024-02-21T01:37:56;94225.50;;;5.81;100.00
10606;BME280;5350;42.698;23.148;2024-02-21T01:40:23;94226.41;;;5.92;100.00
10606;BME280;5350;42.698;23.148;2024-02-21T01:42:50;94228.28;;;5.75;100.00
10606;BME280;5350;42.698;23.148;2024-02-21T01:45:19;94227.81;;;5.78;100.00
10606;BME280;5350;42.698;23.148;2024-02-21T01:47:45;94220.19;;;5.76;100.00
10606;BME280;5350;42.698;23.148;2024-02-21T01:50:14;94219.47;;;5.81;100.00
10606;BME280;5350;42.698;23.148;2024-02-21T01:52:41;94221.66;;;5.89;100.00
10606;BME280;5350;42.698;23.148;2024-02-21T01:55:10;94218.16;;;6.00;100.00
10606;BME280;5350;42.698;23.148;2024-02-21T01:57:39;94223.25;;;5.90;100.00
10606;BME280;5350;42.698;23.148;2024-02-21T02:00:07;94222.75;;;5.93;100.00
10606;BME280;5350;42.698;23.148;2024-02-21T02:02:36;94218.63;;;5.97;100.00
10606;BME280;5350;42.698;23.148;2024-02-21T02:05:04;94215.47;;;5.95;100.00
10606;BME280;5350;42.698;23.148;2024-02-21T02:07:33;94217.34;;;5.99;100.00
10606;BME280;5350;42.698;23.148;2024-02-21T02:10:00;94210.56;;;5.98;100.00
10606;BME280;5350;42.698;23.148;2024-02-21T02:12:26;94213.09;;;5.93;100.00
10606;BME280;5350;42.698;23.148;2024-02-21T02:14:58;94200.56;;;5.90;100.00
10606;BME280;5350;42.698;23.148;2024-02-21T02:17:25;94204.47;;;5.93;100.00
10606;BME280;5350;42.698;23.148;2024-02-21T02:19:51;94210.25;;;5.95;100.00
10606;BME280;5350;42.698;23.148;2024-02-21T02:22:22;94206.63;;;5.96;100.00
10606;BME280;5350;42.698;23.148;2024-02-21T02:24:51;94199.03;;;5.94;100.00
10606;BME280;5350;42.698;23.148;2024-02-21T02:27:17;94201.66;;;5.94;100.00
10606;BME280;5350;42.698;23.148;2024-02-21T02:29:44;94197.19;;;5.95;100.00
10606;BME280;5350;42.698;23.148;2024-02-21T02:32:12;94194.09;;;5.98;100.00
10606;BME280;5350;42.698;23.148;2024-02-21T02:34:39;94197.03;;;5.80;100.00
10606;BME280;5350;42.698;23.148;2024-02-21T02:37:05;94189.69;;;5.55;100.00
10606;BME280;5350;42.698;23.148;2024-02-21T02:39:32;94190.28;;;5.40;100.00
10606;BME280;5350;42.698;23.148;2024-02-21T02:42:01;94187.38;;;5.37;100.00
10606;BME280;5350;42.698;23.148;2024-02-21T02:44:28;94187.09;;;5.33;100.00
10606;BME280;5350;42.698;23.148;2024-02-21T02:46:54;94190.84;;;5.42;100.00
10606;BME280;5350;42.698;23.148;2024-02-21T02:49:21;94193.94;;;5.39;100.00
10606;BME280;5350;42.698;23.148;2024-02-21T02:51:48;94201.53;;;5.41;100.00
10606;BME280;5350;42.698;23.148;2024-02-21T02:54:14;94199.16;;;5.39;100.00
10606;BME280;5350;42.698;23.148;2024-02-21T02:56:41;94193.22;;;5.44;100.00
10606;BME280;5350;42.698;23.148;2024-02-21T02:59:10;94204.03;;;5.52;100.00
10606;BME280;5350;42.698;23.148;2024-02-21T03:01:36;94200.63;;;5.52;100.00
10606;BME280;5350;42.698;23.148;2024-02-21T03:04:04;94197.94;;;5.47;100.00
10606;BME280;5350;42.698;23.148;2024-02-21T03:06:30;94196.66;;;5.49;100.00
10606;BME280;5350;42.698;23.148;2024-02-21T03:08:57;94200.97;;;5.60;100.00
10606;BME280;5350;42.698;23.148;2024-02-21T03:11:25;94203.28;;;5.57;100.00
10606;BME280;5350;42.698;23.148;2024-02-21T03:13:54;94209.00;;;5.54;100.00
10606;BME280;5350;42.698;23.148;2024-02-21T03:16:23;94212.44;;;5.59;100.00
10606;BME280;5350;42.698;23.148;2024-02-21T03:18:49;94205.88;;;5.57;100.00
10606;BME280;5350;42.698;23.148;2024-02-21T03:21:16;94208.31;;;5.63;100.00
10606;BME280;5350;42.698;23.148;2024-02-21T03:23:43;94208.63;;;5.67;100.00
10606;BME280;5350;42.698;23.148;2024-02-21T03:26:09;94215.59;;;5.61;100.00
10606;BME280;5350;42.698;23.148;2024-02-21T03:28:36;94216.28;;;5.52;100.00
10606;BME280;5350;42.698;23.148;2024-02-21T03:31:05;94209.25;;;5.52;100.00
10606;BME280;5350;42.698;23.148;2024-02-21T03:33:33;94220.69;;;5.51;100.00
10606;BME280;5350;42.698;23.148;2024-02-21T03:36:00;94223.03;;;5.48;100.00
10606;BME280;5350;42.698;23.148;2024-02-21T03:38:26;94219.00;;;5.40;100.00
10606;BME280;5350;42.698;23.148;2024-02-21T03:40:53;94219.78;;;5.41;100.00
10606;BME280;5350;42.698;23.148;2024-02-21T03:43:19;94217.72;;;5.43;100.00
10606;BME280;5350;42.698;23.148;2024-02-21T03:45:46;94223.13;;;5.36;100.00
10606;BME280;5350;42.698;23.148;2024-02-21T03:48:13;94213.31;;;5.05;100.00
10606;BME280;5350;42.698;23.148;2024-02-21T03:50:41;94219.41;;;5.11;100.00
10606;BME280;5350;42.698;23.148;2024-02-21T03:53:08;94224.16;;;4.97;100.00
10606;BME280;5350;42.698;23.148;2024-02-21T03:55:35;94225.75;;;4.98;100.00
10606;BME280;5350;42.698;23.148;2024-02-21T03:58:01;94222.09;;;4.99;100.00
10606;BME280;5350;42.698;23.148;2024-02-21T04:00:28;94222.09;;;4.99;100.00
10606;BME280;5350;42.698;23.148;2024-02-21T04:02:55;94219.75;;;4.98;100.00
10606;BME280;5350;42.698;23.148;2024-02-21T04:05:22;94228.78;;;4.90;100.00
10606;BME280;5350;42.698;23.148;2024-02-21T04:07:50;94220.22;;;4.95;100.00
10606;BME280;5350;42.698;23.148;2024-02-21T04:10:17;94222.75;;;4.90;100.00
10606;BME280;5350;42.698;23.148;2024-02-21T04:12:44;94213.44;;;4.94;100.00
10606;BME280;5350;42.698;23.148;2024-02-21T04:15:10;94209.97;;;4.88;100.00
10606;BME280;5350;42.698;23.148;2024-02-21T04:17:37;94215.31;;;4.98;100.00
10606;BME280;5350;42.698;23.148;2024-02-21T04:20:05;94215.75;;;4.90;100.00
10606;BME280;5350;42.698;23.148;2024-02-21T04:22:33;94219.78;;;4.81;100.00
10606;BME280;5350;42.698;23.148;2024-02-21T04:25:01;94214.06;;;4.84;100.00
10606;BME280;5350;42.698;23.148;2024-02-21T04:27:27;94212.19;;;4.79;100.00
10606;BME280;5350;42.698;23.148;2024-02-21T04:29:55;94210.53;;;4.90;100.00
10606;BME280;5350;42.698;23.148;2024-02-21T04:32:21;94219.78;;;4.81;100.00
10606;BME280;5350;42.698;23.148;2024-02-21T04:34:48;94222.28;;;4.59;100.00
10606;BME280;5350;42.698;23.148;2024-02-21T04:37:15;94214.88;;;4.68;100.00
10606;BME280;5350;42.698;23.148;2024-02-21T04:39:41;94217.56;;;4.56;100.00
10606;BME280;5350;42.698;23.148;2024-02-21T04:42:09;94225.94;;;4.75;100.00
10606;BME280;5350;42.698;23.148;2024-02-21T04:44:36;94225.13;;;4.74;100.00
10606;BME280;5350;42.698;23.148;2024-02-21T04:47:03;94228.44;;;4.70;100.00
10606;BME280;5350;42.698;23.148;2024-02-21T04:49:30;94230.03;;;4.71;100.00
10606;BME280;5350;42.698;23.148;2024-02-21T04:51:57;94228.00;;;4.73;100.00
10606;BME280;5350;42.698;23.148;2024-02-21T04:54:23;94231.75;;;4.65;100.00
10606;BME280;5350;42.698;23.148;2024-02-21T04:56:50;94225.38;;;4.73;100.00
10606;BME280;5350;42.698;23.148;2024-02-21T04:59:18;94227.66;;;4.69;100.00
10606;BME280;5350;42.698;23.148;2024-02-21T05:01:45;94232.25;;;4.79;100.00
10606;BME280;5350;42.698;23.148;2024-02-21T05:04:12;94227.50;;;4.76;100.00
10606;BME280;5350;42.698;23.148;2024-02-21T05:06:39;94229.88;;;4.77;100.00
10606;BME280;5350;42.698;23.148;2024-02-21T05:09:06;94234.84;;;4.79;100.00
10606;BME280;5350;42.698;23.148;2024-02-21T05:11:33;94241.00;;;4.90;100.00
10606;BME280;5350;42.698;23.148;2024-02-21T05:14:00;94238.25;;;4.96;100.00
10606;BME280;5350;42.698;23.148;2024-02-21T05:16:29;94235.69;;;5.01;100.00
10606;BME280;5350;42.698;23.148;2024-02-21T05:18:55;94231.91;;;5.09;100.00
10606;BME280;5350;42.698;23.148;2024-02-21T05:21:22;94234.25;;;5.10;100.00
10606;BME280;5350;42.698;23.148;2024-02-21T05:23:49;94239.41;;;5.05;100.00
10606;BME280;5350;42.698;23.148;2024-02-21T05:26:20;94241.84;;;5.12;100.00
10606;BME280;5350;42.698;23.148;2024-02-21T05:28:48;94244.78;;;5.15;100.00
10606;BME280;5350;42.698;23.148;2024-02-21T05:31:15;94241.66;;;5.18;100.00
10606;BME280;5350;42.698;23.148;2024-02-21T05:33:43;94242.59;;;5.29;100.00
10606;BME280;5350;42.698;23.148;2024-02-21T05:36:10;94234.38;;;5.20;100.00
10606;BME280;5350;42.698;23.148;2024-02-21T05:38:37;94241.59;;;5.13;100.00
10606;BME280;5350;42.698;23.148;2024-02-21T05:41:03;94242.16;;;5.15;100.00
10606;BME280;5350;42.698;23.148;2024-02-21T05:43:30;94243.44;;;5.13;100.00
10606;BME280;5350;42.698;23.148;2024-02-21T05:45:57;94249.50;;;5.18;100.00
10606;BME280;5350;42.698;23.148;2024-02-21T05:48:24;94241.59;;;5.13;100.00
10606;BME280;5350;42.698;23.148;2024-02-21T05:50:52;94250.97;;;5.31;100.00
10606;BME280;5350;42.698;23.148;2024-02-21T05:53:19;94257.78;;;5.32;100.00
10606;BME280;5350;42.698;23.148;2024-02-21T05:55:46;94257.03;;;5.36;100.00
10606;BME280;5350;42.698;23.148;2024-02-21T05:58:12;94264.25;;;5.29;100.00
10606;BME280;5350;42.698;23.148;2024-02-21T06:00:39;94262.19;;;5.31;100.00
10606;BME280;5350;42.698;23.148;2024-02-21T06:03:05;94268.00;;;5.38;100.00
10606;BME280;5350;42.698;23.148;2024-02-21T06:05:36;94258.75;;;5.47;100.00
10606;BME280;5350;42.698;23.148;2024-02-21T06:08:05;94259.28;;;5.49;100.00
10606;BME280;5350;42.698;23.148;2024-02-21T06:10:32;94272.28;;;5.44;100.00
10606;BME280;5350;42.698;23.148;2024-02-21T06:12:59;94269.72;;;5.49;100.00
10606;BME280;5350;42.698;23.148;2024-02-21T06:15:25;94277.63;;;5.54;100.00
10606;BME280;5350;42.698;23.148;2024-02-21T06:17:52;94280.13;;;5.44;100.00
10606;BME280;5350;42.698;23.148;2024-02-21T06:20:18;94279.88;;;5.46;100.00
10606;BME280;5350;42.698;23.148;2024-02-21T06:22:45;94271.63;;;5.54;100.00
10606;BME280;5350;42.698;23.148;2024-02-21T06:25:13;94285.47;;;5.54;100.00
10606;BME280;5350;42.698;23.148;2024-02-21T06:27:40;94283.41;;;5.56;100.00
10606;BME280;5350;42.698;23.148;2024-02-21T06:30:08;94291.06;;;5.63;100.00
10606;BME280;5350;42.698;23.148;2024-02-21T06:32:35;94301.16;;;5.59;100.00
10606;BME280;5350;42.698;23.148;2024-02-21T06:35:01;94291.22;;;5.56;100.00
10606;BME280;5350;42.698;23.148;2024-02-21T06:37:28;94297.59;;;5.65;100.00
10606;BME280;5350;42.698;23.148;2024-02-21T06:39:55;94297.34;;;5.84;100.00
10606;BME280;5350;42.698;23.148;2024-02-21T06:42:25;94296.38;;;5.90;100.00
10606;BME280;5350;42.698;23.148;2024-02-21T06:44:52;94294.16;;;5.82;100.00
10606;BME280;5350;42.698;23.148;2024-02-21T06:47:18;94298.84;;;6.01;100.00
10606;BME280;5350;42.698;23.148;2024-02-21T06:49:48;94303.59;;;6.04;100.00
10606;BME280;5350;42.698;23.148;2024-02-21T06:52:17;94308.13;;;6.14;100.00
10606;BME280;5350;42.698;23.148;2024-02-21T06:54:45;94299.63;;;6.23;100.00
10606;BME280;5350;42.698;23.148;2024-02-21T06:57:12;94308.19;;;6.19;100.00
10606;BME280;5350;42.698;23.148;2024-02-21T06:59:40;94311.09;;;6.22;100.00
10606;BME280;5350;42.698;23.148;2024-02-21T07:02:07;94317.72;;;6.30;100.00
10606;BME280;5350;42.698;23.148;2024-02-21T07:04:34;94311.53;;;6.36;100.00
10606;BME280;5350;42.698;23.148;2024-02-21T07:07:01;94315.78;;;6.47;100.00
10606;BME280;5350;42.698;23.148;2024-02-21T07:09:28;94307.75;;;6.54;100.00
10606;BME280;5350;42.698;23.148;2024-02-21T07:11:57;94306.69;;;6.50;100.00
10606;BME280;5350;42.698;23.148;2024-02-21T07:14:24;94302.25;;;6.50;100.00
10606;BME280;5350;42.698;23.148;2024-02-21T07:16:52;94309.28;;;6.50;100.00
10606;BME280;5350;42.698;23.148;2024-02-21T07:19:19;94311.25;;;6.64;100.00
10606;BME280;5350;42.698;23.148;2024-02-21T07:21:46;94306.78;;;6.60;100.00
10606;BME280;5350;42.698;23.148;2024-02-21T07:24:13;94314.28;;;6.78;100.00
10606;BME280;5350;42.698;23.148;2024-02-21T07:26:41;94317.16;;;6.81;100.00
10606;BME280;5350;42.698;23.148;2024-02-21T07:29:08;94317.75;;;6.88;100.00
10606;BME280;5350;42.698;23.148;2024-02-21T07:31:38;94326.03;;;6.80;100.00
10606;BME280;5350;42.698;23.148;2024-02-21T07:34:07;94317.03;;;6.66;100.00
10606;BME280;5350;42.698;23.148;2024-02-21T07:36:33;94314.22;;;6.73;100.00
10606;BME280;5350;42.698;23.148;2024-02-21T07:39:00;94320.31;;;6.83;100.00
10606;BME280;5350;42.698;23.148;2024-02-21T07:41:27;94327.81;;;6.75;100.00
10606;BME280;5350;42.698;23.148;2024-02-21T07:43:55;94326.81;;;6.76;100.00
10606;BME280;5350;42.698;23.148;2024-02-21T07:46:22;94315.16;;;6.88;100.00
10606;BME280;5350;42.698;23.148;2024-02-21T07:48:50;94319.94;;;7.01;100.00
10606;BME280;5350;42.698;23.148;2024-02-21T07:51:18;94324.84;;;7.24;100.00
10606;BME280;5350;42.698;23.148;2024-02-21T07:53:45;94319.44;;;7.41;99.87
10606;BME280;5350;42.698;23.148;2024-02-21T07:56:13;94321.91;;;7.53;99.35
10606;BME280;5350;42.698;23.148;2024-02-21T07:58:39;94320.34;;;7.62;98.70
10606;BME280;5350;42.698;23.148;2024-02-21T08:01:06;94318.91;;;7.81;98.93
10606;BME280;5350;42.698;23.148;2024-02-21T08:03:33;94322.59;;;7.85;92.79
10606;BME280;5350;42.698;23.148;2024-02-21T08:06:00;94318.63;;;7.77;92.54
10606;BME280;5350;42.698;23.148;2024-02-21T08:08:28;94311.56;;;7.83;93.25
10606;BME280;5350;42.698;23.148;2024-02-21T08:10:55;94311.16;;;8.06;93.11
10606;BME280;5350;42.698;23.148;2024-02-21T08:13:22;94314.88;;;8.20;91.61
10606;BME280;5350;42.698;23.148;2024-02-21T08:15:49;94323.72;;;8.04;91.03
10606;BME280;5350;42.698;23.148;2024-02-21T08:18:15;94312.22;;;8.05;90.49
10606;BME280;5350;42.698;23.148;2024-02-21T08:20:42;94313.28;;;8.14;90.69
10606;BME280;5350;42.698;23.148;2024-02-21T08:23:09;94318.50;;;8.14;89.57
10606;BME280;5350;42.698;23.148;2024-02-21T08:25:37;94323.00;;;8.19;87.18
10606;BME280;5350;42.698;23.148;2024-02-21T08:28:05;94321.16;;;8.19;86.74
10606;BME280;5350;42.698;23.148;2024-02-21T08:30:33;94324.75;;;7.98;86.48
10606;BME280;5350;42.698;23.148;2024-02-21T08:32:59;94319.00;;;8.06;86.29
10606;BME280;5350;42.698;23.148;2024-02-21T08:35:26;94326.56;;;7.92;87.62
10606;BME280;5350;42.698;23.148;2024-02-21T08:37:53;94321.06;;;7.99;89.21
10606;BME280;5350;42.698;23.148;2024-02-21T08:40:19;94324.22;;;8.01;87.47
10606;BME280;5350;42.698;23.148;2024-02-21T08:42:48;94333.41;;;8.03;88.13
10606;BME280;5350;42.698;23.148;2024-02-21T08:45:15;94329.28;;;8.23;87.60
10606;BME280;5350;42.698;23.148;2024-02-21T08:47:42;94323.09;;;8.34;88.51
10606;BME280;5350;42.698;23.148;2024-02-21T08:50:10;94347.44;;;8.29;87.98
10606;BME280;5350;42.698;23.148;2024-02-21T08:52:36;94332.78;;;8.43;86.51
10606;BME280;5350;42.698;23.148;2024-02-21T08:55:04;94328.59;;;8.32;86.36
10606;BME280;5350;42.698;23.148;2024-02-21T08:57:31;94331.75;;;8.39;86.87
10606;BME280;5350;42.698;23.148;2024-02-21T09:00:04;94326.00;;;8.42;85.82
10606;BME280;5350;42.698;23.148;2024-02-21T09:02:36;94331.78;;;8.54;85.91
10606;BME280;5350;42.698;23.148;2024-02-21T09:05:04;94328.59;;;8.47;85.61
10606;BME280;5350;42.698;23.148;2024-02-21T09:07:31;94321.81;;;8.46;85.65
10606;BME280;5350;42.698;23.148;2024-02-21T09:09:58;94327.03;;;8.36;86.46
10606;BME280;5350;42.698;23.148;2024-02-21T09:12:24;94320.19;;;8.35;85.49
10606;BME280;5350;42.698;23.148;2024-02-21T09:14:51;94325.47;;;8.55;85.04
10606;BME280;5350;42.698;23.148;2024-02-21T09:17:19;94333.84;;;8.42;86.14
10606;BME280;5350;42.698;23.148;2024-02-21T09:19:46;94330.16;;;8.43;85.03
10606;BME280;5350;42.698;23.148;2024-02-21T09:22:13;94322.88;;;8.50;83.74
10606;BME280;5350;42.698;23.148;2024-02-21T09:24:40;94332.31;;;8.66;83.88
10606;BME280;5350;42.698;23.148;2024-02-21T09:27:06;94323.19;;;8.84;84.41
10606;BME280;5350;42.698;23.148;2024-02-21T09:29:33;94321.63;;;8.78;82.38
10606;BME280;5350;42.698;23.148;2024-02-21T09:32:00;94326.06;;;8.88;81.27
10606;BME280;5350;42.698;23.148;2024-02-21T09:34:29;94326.59;;;9.00;80.84
10606;BME280;5350;42.698;23.148;2024-02-21T09:36:56;94325.03;;;9.09;81.09
10606;BME280;5350;42.698;23.148;2024-02-21T09:39:22;94321.88;;;9.32;81.27
10606;BME280;5350;42.698;23.148;2024-02-21T09:41:50;94330.25;;;9.59;79.04
10606;BME280;5350;42.698;23.148;2024-02-21T09:44:21;94326.53;;;9.70;77.16
10606;BME280;5350;42.698;23.148;2024-02-21T09:46:52;94330.72;;;9.81;75.50
10606;BME280;5350;42.698;23.148;2024-02-21T09:49:31;94325.97;;;9.93;77.47
10606;BME280;5350;42.698;23.148;2024-02-21T09:52:00;94324.88;;;10.19;75.74
10606;BME280;5350;42.698;23.148;2024-02-21T09:54:29;94320.66;;;10.23;74.43
10606;BME280;5350;42.698;23.148;2024-02-21T09:56:56;94306.72;;;10.08;72.67
10606;BME280;5350;42.698;23.148;2024-02-21T09:59:23;94330.13;;;10.19;72.72
10606;BME280;5350;42.698;23.148;2024-02-21T10:01:51;94336.97;;;10.10;70.90
10606;BME280;5350;42.698;23.148;2024-02-21T10:04:17;94334.88;;;10.17;70.77
10606;BME280;5350;42.698;23.148;2024-02-21T10:06:46;94331.44;;;10.17;69.46
10606;BME280;5350;42.698;23.148;2024-02-21T10:09:20;94327.00;;;10.12;69.13
10606;BME280;5350;42.698;23.148;2024-02-21T10:11:48;94323.22;;;10.38;69.39
10606;BME280;5350;42.698;23.148;2024-02-21T10:14:15;94319.44;;;10.55;66.17
10606;BME280;5350;42.698;23.148;2024-02-21T10:16:42;94317.97;;;10.38;66.97
10606;BME280;5350;42.698;23.148;2024-02-21T10:19:16;94311.66;;;10.34;66.70
10606;BME280;5350;42.698;23.148;2024-02-21T10:21:43;94310.72;;;10.05;67.55
10606;BME280;5350;42.698;23.148;2024-02-21T10:24:12;94304.31;;;10.26;69.68
10606;BME280;5350;42.698;23.148;2024-02-21T10:26:39;94309.28;;;10.33;65.86
10606;BME280;5350;42.698;23.148;2024-02-21T10:29:06;94299.63;;;10.23;64.76
10606;BME280;5350;42.698;23.148;2024-02-21T10:31:32;94287.06;;;9.95;65.56
10606;BME280;5350;42.698;23.148;2024-02-21T10:34:00;94281.78;;;10.10;65.84
10606;BME280;5350;42.698;23.148;2024-02-21T10:36:28;94277.50;;;10.29;66.24
10606;BME280;5350;42.698;23.148;2024-02-21T10:38:55;94273.63;;;10.17;64.88
10606;BME280;5350;42.698;23.148;2024-02-21T10:41:24;94265.47;;;10.08;65.69
10606;BME280;5350;42.698;23.148;2024-02-21T10:43:53;94272.81;;;10.21;65.35
10606;BME280;5350;42.698;23.148;2024-02-21T10:46:21;94267.50;;;10.26;65.31
10606;BME280;5350;42.698;23.148;2024-02-21T10:48:58;94254.22;;;10.52;64.19
10606;BME280;5350;42.698;23.148;2024-02-21T10:51:33;94252.00;;;10.69;63.46
10606;BME280;5350;42.698;23.148;2024-02-21T10:54:07;94257.25;;;10.74;62.68
10606;BME280;5350;42.698;23.148;2024-02-21T10:56:40;94259.22;;;10.87;62.00
10606;BME280;5350;42.698;23.148;2024-02-21T10:59:08;94247.63;;;10.93;60.54
10606;BME280;5350;42.698;23.148;2024-02-21T11:01:34;94249.41;;;10.97;59.84
10606;BME280;5350;42.698;23.148;2024-02-21T11:04:03;94241.69;;;11.11;57.09
10606;BME280;5350;42.698;23.148;2024-02-21T11:06:30;94242.06;;;11.28;56.58
10606;BME280;5350;42.698;23.148;2024-02-21T11:09:03;94243.00;;;11.08;54.39
10606;BME280;5350;42.698;23.148;2024-02-21T11:11:33;94240.88;;;11.10;55.11
10606;BME280;5350;42.698;23.148;2024-02-21T11:14:08;94243.22;;;10.83;54.01
10606;BME280;5350;42.698;23.148;2024-02-21T11:16:36;94239.53;;;10.45;55.42
10606;BME280;5350;42.698;23.148;2024-02-21T11:19:07;94232.63;;;10.06;57.04
10606;BME280;5350;42.698;23.148;2024-02-21T11:21:35;94229.25;;;9.95;58.18
10606;BME280;5350;42.698;23.148;2024-02-21T11:24:02;94226.09;;;9.98;58.45
10606;BME280;5350;42.698;23.148;2024-02-21T11:26:30;94223.75;;;9.92;58.92
10606;BME280;5350;42.698;23.148;2024-02-21T11:28:58;94233.69;;;10.05;58.75
10606;BME280;5350;42.698;23.148;2024-02-21T11:31:27;94227.59;;;10.14;57.21
10606;BME280;5350;42.698;23.148;2024-02-21T11:34:04;94226.19;;;9.78;58.17
10606;BME280;5350;42.698;23.148;2024-02-21T11:36:31;94223.25;;;9.85;59.38
10606;BME280;5350;42.698;23.148;2024-02-21T11:39:03;94222.81;;;9.57;59.83
10606;BME280;5350;42.698;23.148;2024-02-21T11:41:30;94233.13;;;9.49;61.03
10606;BME280;5350;42.698;23.148;2024-02-21T11:43:57;94214.97;;;9.52;61.94
10606;BME280;5350;42.698;23.148;2024-02-21T11:46:24;94197.94;;;9.35;63.68
10606;BME280;5350;42.698;23.148;2024-02-21T11:48:52;94202.38;;;9.54;63.87
10606;BME280;5350;42.698;23.148;2024-02-21T11:51:22;94203.47;;;9.38;65.77
10606;BME280;5350;42.698;23.148;2024-02-21T11:53:52;94212.09;;;9.49;65.84
10606;BME280;5350;42.698;23.148;2024-02-21T11:56:18;94200.03;;;9.48;63.70
10606;BME280;5350;42.698;23.148;2024-02-21T11:58:46;94204.22;;;9.49;64.99
10606;BME280;5350;42.698;23.148;2024-02-21T12:01:13;94202.38;;;9.49;62.75
10606;BME280;5350;42.698;23.148;2024-02-21T12:03:40;94195.84;;;9.47;63.16
10606;BME280;5350;42.698;23.148;2024-02-21T12:06:08;94197.16;;;9.44;64.30
10606;BME280;5350;42.698;23.148;2024-02-21T12:08:41;94194.25;;;9.41;65.49
10606;BME280;5350;42.698;23.148;2024-02-21T12:11:19;94184.03;;;9.39;65.98
10606;BME280;5350;42.698;23.148;2024-02-21T12:13:46;94196.59;;;9.47;66.72
10606;BME280;5350;42.698;23.148;2024-02-21T12:16:15;94192.38;;;9.61;66.45
10606;BME280;5350;42.698;23.148;2024-02-21T12:18:43;94198.22;;;9.38;63.63
10606;BME280;5350;42.698;23.148;2024-02-21T12:21:11;94185.28;;;9.57;60.48
10606;BME280;5350;42.698;23.148;2024-02-21T12:23:38;94181.06;;;9.61;62.10
10606;BME280;5350;42.698;23.148;2024-02-21T12:26:05;94181.03;;;9.71;63.16
10606;BME280;5350;42.698;23.148;2024-02-21T12:28:32;94184.63;;;9.85;62.16
10606;BME280;5350;42.698;23.148;2024-02-21T12:30:59;94180.56;;;10.13;61.09
10606;BME280;5350;42.698;23.148;2024-02-21T12:33:25;94179.19;;;10.25;60.02
10606;BME280;5350;42.698;23.148;2024-02-21T12:35:52;94183.38;;;10.26;60.38
10606;BME280;5350;42.698;23.148;2024-02-21T12:38:21;94182.03;;;10.34;59.53
10606;BME280;5350;42.698;23.148;2024-02-21T12:40:48;94175.81;;;10.20;58.02
10606;BME280;5350;42.698;23.148;2024-02-21T12:43:15;94176.66;;;10.05;57.92
10606;BME280;5350;42.698;23.148;2024-02-21T12:45:41;94170.91;;;9.93;59.26
10606;BME280;5350;42.698;23.148;2024-02-21T12:48:08;94165.13;;;9.96;60.20
10606;BME280;5350;42.698;23.148;2024-02-21T12:50:35;94170.59;;;10.05;61.31
10606;BME280;5350;42.698;23.148;2024-02-21T12:53:01;94165.31;;;10.15;61.23
10606;BME280;5350;42.698;23.148;2024-02-21T12:55:29;94170.28;;;10.21;60.43
10606;BME280;5350;42.698;23.148;2024-02-21T12:57:56;94163.47;;;10.15;62.00
10606;BME280;5350;42.698;23.148;2024-02-21T13:00:23;94160.59;;;10.07;64.81
10606;BME280;5350;42.698;23.148;2024-02-21T13:02:53;94163.69;;;9.70;67.30
10606;BME280;5350;42.698;23.148;2024-02-21T13:05:19;94154.34;;;9.49;68.06